Terminal Aerodrome Forecast
Issued by NWS Mt. Holly, NJ

Home | Current Version | Previous Version | Text Only | Print | Product List | Glossary On
Versions: 1 2 3 4 5 6 7 8 9 10 11 12 13 14 15 16 17 18 19 20
612
FTUS41 KPHI 232321
TAFPHL
TAF
KPHL 232321Z 2400/2506 18008KT P6SM BKN250
     FM240400 13005KT P6SM BKN250
     FM241200 09006KT P6SM OVC100
     FM241600 08012KT P6SM OVC050
      TEMPO 2420/2422 -SHRA OVC035
     FM242200 07012G18KT 6SM -SHRA OVC025
     FM250300 06012G22KT 3SM -RA BR OVC012=

USA.gov is the U.S. government's official web portal to all federal, state and local government web resources and services.